JEI595 EPKK-EDMO
Flight info
| Callsign | JEI595 |
|---|---|
| Flight time | 1h 5m |
| Altitude | 32000 |
| Route | TUSIN M984 MIKOV DCT SBG DCT TITIG DCT OTT |
| Aircraft | LJ35/M-SFGJRW/S |
Departure
| Time | 2026-05-05 16:57 |
|---|---|
| Airport | Kraków John Paul II International Airport (EPKK) |
Arrival
| Time | 2026-05-05 18:02 |
|---|---|
| Airport | Oberpfaffenhofen Airport (EDMO) |
| Time | Latitude | Longitude | Altitude | Speed | Heading |
|---|---|---|---|---|---|
| 2026-05-05 16:17 | 50.07696 | 19.80163 | 785 ft | 0 kts | 348° |
| 2026-05-05 16:53 | 50.07697 | 19.80162 | 794 ft | 1 kts | 347° |
| 2026-05-05 16:54 | 50.07710 | 19.80158 | 794 ft | 4 kts | 347° |
| 2026-05-05 16:54 | 50.07751 | 19.80163 | 794 ft | 7 kts | 52° |
| 2026-05-05 16:54 | 50.07766 | 19.80259 | 794 ft | 11 kts | 78° |
| 2026-05-05 16:54 | 50.07811 | 19.80347 | 794 ft | 10 kts | 356° |
| 2026-05-05 16:55 | 50.07885 | 19.80323 | 794 ft | 12 kts | 348° |
| 2026-05-05 16:55 | 50.07977 | 19.80291 | 794 ft | 13 kts | 348° |
| 2026-05-05 16:55 | 50.08015 | 19.80223 | 794 ft | 1 kts | 257° |
| 2026-05-05 16:56 | 50.07982 | 19.79984 | 795 ft | 64 kts | 258° |
| 2026-05-05 16:57 | 50.07841 | 19.78975 | 795 ft | 123 kts | 258° |
| 2026-05-05 16:57 | 50.07646 | 19.77467 | 1078 ft | 151 kts | 257° |
| 2026-05-05 16:57 | 50.07420 | 19.75830 | 1616 ft | 160 kts | 257° |
| 2026-05-05 16:57 | 50.07177 | 19.74124 | 2303 ft | 161 kts | 255° |
| 2026-05-05 16:58 | 50.06929 | 19.72399 | 3142 ft | 166 kts | 255° |
| 2026-05-05 16:58 | 50.06677 | 19.70625 | 3975 ft | 170 kts | 255° |
| 2026-05-05 16:58 | 50.06422 | 19.68816 | 4770 ft | 173 kts | 255° |
| 2026-05-05 16:58 | 50.06162 | 19.66963 | 5575 ft | 177 kts | 255° |
| 2026-05-05 16:59 | 50.05893 | 19.65069 | 6373 ft | 181 kts | 255° |
| 2026-05-05 16:59 | 50.05624 | 19.63145 | 7156 ft | 183 kts | 255° |
| 2026-05-05 16:59 | 50.05349 | 19.61188 | 7950 ft | 186 kts | 255° |
| 2026-05-05 16:59 | 50.05074 | 19.59245 | 8746 ft | 187 kts | 255° |
| 2026-05-05 17:00 | 50.04796 | 19.57277 | 9572 ft | 189 kts | 255° |
| 2026-05-05 17:00 | 50.04511 | 19.55266 | 10272 ft | 192 kts | 255° |
| 2026-05-05 17:00 | 50.04223 | 19.53229 | 10986 ft | 193 kts | 255° |
| 2026-05-05 17:00 | 50.04106 | 19.52403 | 11269 ft | 194 kts | 255° |
| 2026-05-05 17:01 | 50.03814 | 19.50347 | 12000 ft | 195 kts | 255° |
| 2026-05-05 17:01 | 50.03519 | 19.48279 | 12727 ft | 197 kts | 255° |
| 2026-05-05 17:01 | 50.03221 | 19.46189 | 13429 ft | 199 kts | 255° |
| 2026-05-05 17:01 | 50.02922 | 19.44087 | 14080 ft | 200 kts | 255° |
| 2026-05-05 17:02 | 50.02632 | 19.41953 | 14703 ft | 203 kts | 259° |
| 2026-05-05 17:02 | 50.02725 | 19.39765 | 15313 ft | 209 kts | 276° |
| 2026-05-05 17:02 | 50.02965 | 19.37521 | 15986 ft | 211 kts | 275° |
| 2026-05-05 17:02 | 50.03183 | 19.35258 | 16784 ft | 212 kts | 275° |
| 2026-05-05 17:03 | 50.03410 | 19.32980 | 17581 ft | 213 kts | 275° |
| 2026-05-05 17:03 | 50.03641 | 19.30713 | 18414 ft | 211 kts | 276° |
| 2026-05-05 17:03 | 50.03866 | 19.28478 | 19166 ft | 209 kts | 276° |
| 2026-05-05 17:03 | 50.04088 | 19.26248 | 19899 ft | 208 kts | 276° |
| 2026-05-05 17:04 | 50.04310 | 19.24025 | 20607 ft | 208 kts | 277° |
| 2026-05-05 17:04 | 50.04528 | 19.21838 | 21320 ft | 207 kts | 277° |
| 2026-05-05 17:04 | 50.04748 | 19.19624 | 22027 ft | 207 kts | 277° |
| 2026-05-05 17:04 | 50.04967 | 19.17416 | 22731 ft | 206 kts | 277° |
| 2026-05-05 17:05 | 50.05185 | 19.15213 | 23422 ft | 206 kts | 278° |
| 2026-05-05 17:05 | 50.05404 | 19.13007 | 23992 ft | 206 kts | 278° |
| 2026-05-05 17:05 | 50.05620 | 19.10806 | 24557 ft | 206 kts | 278° |
| 2026-05-05 17:05 | 50.05838 | 19.08604 | 25132 ft | 206 kts | 278° |
| 2026-05-05 17:06 | 50.06053 | 19.06400 | 25691 ft | 206 kts | 278° |
| 2026-05-05 17:06 | 50.06267 | 19.04222 | 26241 ft | 207 kts | 278° |
| 2026-05-05 17:06 | 50.06484 | 19.02009 | 26797 ft | 207 kts | 278° |
| 2026-05-05 17:06 | 50.06702 | 18.99783 | 27320 ft | 210 kts | 278° |
| 2026-05-05 17:07 | 50.06923 | 18.97513 | 27817 ft | 214 kts | 278° |
| 2026-05-05 17:07 | 50.07138 | 18.95271 | 28515 ft | 206 kts | 278° |
| 2026-05-05 17:07 | 50.07348 | 18.93102 | 29194 ft | 201 kts | 278° |
| 2026-05-05 17:07 | 50.07554 | 18.90984 | 29835 ft | 194 kts | 278° |
| 2026-05-05 17:08 | 50.07750 | 18.88949 | 30375 ft | 186 kts | 278° |
| 2026-05-05 17:08 | 50.07937 | 18.86999 | 30855 ft | 180 kts | 279° |
| 2026-05-05 17:08 | 50.08127 | 18.85060 | 31075 ft | 188 kts | 278° |
| 2026-05-05 17:08 | 50.08322 | 18.83033 | 31405 ft | 188 kts | 278° |
| 2026-05-05 17:09 | 50.08509 | 18.81055 | 31830 ft | 185 kts | 276° |
| 2026-05-05 17:09 | 50.08347 | 18.78974 | 31773 ft | 207 kts | 248° |
| 2026-05-05 17:09 | 50.07533 | 18.77077 | 31966 ft | 222 kts | 225° |
| 2026-05-05 17:09 | 50.06152 | 18.75746 | 32028 ft | 244 kts | 211° |
| 2026-05-05 17:10 | 50.04592 | 18.74437 | 32062 ft | 266 kts | 212° |
| 2026-05-05 17:10 | 50.02912 | 18.72997 | 32165 ft | 285 kts | 212° |
| 2026-05-05 17:10 | 50.01152 | 18.71496 | 32391 ft | 299 kts | 212° |
| 2026-05-05 17:10 | 49.99276 | 18.69898 | 32612 ft | 315 kts | 212° |
| 2026-05-05 17:11 | 49.97313 | 18.68182 | 32509 ft | 339 kts | 212° |
| 2026-05-05 17:11 | 49.95173 | 18.66252 | 32267 ft | 367 kts | 212° |
| 2026-05-05 17:11 | 49.92891 | 18.64267 | 32331 ft | 385 kts | 211° |
| 2026-05-05 17:11 | 49.90498 | 18.62215 | 32309 ft | 403 kts | 211° |
| 2026-05-05 17:12 | 49.87996 | 18.59962 | 31849 ft | 429 kts | 213° |
| 2026-05-05 17:12 | 49.85466 | 18.57313 | 31586 ft | 446 kts | 219° |
| 2026-05-05 17:12 | 49.83099 | 18.54206 | 31936 ft | 445 kts | 225° |
| 2026-05-05 17:12 | 49.81000 | 18.50766 | 31941 ft | 451 kts | 230° |
| 2026-05-05 17:13 | 49.79028 | 18.46848 | 31246 ft | 463 kts | 237° |
| 2026-05-05 17:13 | 49.77348 | 18.42694 | 31682 ft | 450 kts | 241° |
| 2026-05-05 17:13 | 49.75871 | 18.38526 | 32759 ft | 432 kts | 243° |
| 2026-05-05 17:13 | 49.74493 | 18.34484 | 33840 ft | 419 kts | 243° |
| 2026-05-05 17:14 | 49.73067 | 18.30437 | 33373 ft | 441 kts | 242° |
| 2026-05-05 17:14 | 49.71453 | 18.26286 | 32853 ft | 456 kts | 239° |
| 2026-05-05 17:14 | 49.67644 | 18.18541 | 32768 ft | 458 kts | 229° |
| 2026-05-05 17:15 | 49.65324 | 18.15055 | 32599 ft | 461 kts | 224° |
| 2026-05-05 17:15 | 49.62953 | 18.11821 | 32474 ft | 461 kts | 223° |
| 2026-05-05 17:15 | 49.58401 | 18.04924 | 32369 ft | 459 kts | 232° |
| 2026-05-05 17:16 | 49.56471 | 18.01011 | 32185 ft | 459 kts | 236° |
| 2026-05-05 17:16 | 49.54661 | 17.96951 | 31961 ft | 460 kts | 237° |
| 2026-05-05 17:16 | 49.52806 | 17.92946 | 31839 ft | 459 kts | 234° |
| 2026-05-05 17:16 | 49.50790 | 17.89143 | 31793 ft | 458 kts | 231° |
| 2026-05-05 17:17 | 49.46867 | 17.81527 | 31791 ft | 456 kts | 235° |
| 2026-05-05 17:17 | 49.43000 | 17.73788 | 31791 ft | 457 kts | 233° |
| 2026-05-05 17:18 | 49.39063 | 17.66139 | 31784 ft | 456 kts | 234° |
| 2026-05-05 17:18 | 49.35171 | 17.58456 | 31783 ft | 456 kts | 233° |
| 2026-05-05 17:19 | 49.31189 | 17.50929 | 31782 ft | 457 kts | 230° |
| 2026-05-05 17:19 | 49.26917 | 17.43664 | 31780 ft | 457 kts | 230° |
| 2026-05-05 17:20 | 49.22710 | 17.36452 | 31778 ft | 457 kts | 230° |
| 2026-05-05 17:20 | 49.18462 | 17.29230 | 31781 ft | 457 kts | 230° |
| 2026-05-05 17:21 | 49.14309 | 17.22173 | 31778 ft | 457 kts | 230° |
| 2026-05-05 17:22 | 49.07872 | 17.11282 | 31774 ft | 457 kts | 230° |
| 2026-05-05 17:22 | 49.03615 | 17.04099 | 31769 ft | 456 kts | 230° |
| 2026-05-05 17:23 | 48.99356 | 16.96938 | 31769 ft | 456 kts | 230° |
| 2026-05-05 17:23 | 48.95092 | 16.89787 | 31765 ft | 456 kts | 230° |
| 2026-05-05 17:24 | 48.90828 | 16.82655 | 31765 ft | 455 kts | 229° |
| 2026-05-05 17:24 | 48.86596 | 16.75596 | 31761 ft | 455 kts | 229° |
| 2026-05-05 17:25 | 48.82334 | 16.68504 | 31756 ft | 455 kts | 229° |
| 2026-05-05 17:25 | 48.78599 | 16.60846 | 31743 ft | 451 kts | 244° |
| 2026-05-05 17:26 | 48.76529 | 16.51919 | 31736 ft | 449 kts | 255° |
| 2026-05-05 17:26 | 48.74793 | 16.42882 | 31730 ft | 449 kts | 255° |
| 2026-05-05 17:27 | 48.73041 | 16.33804 | 31721 ft | 449 kts | 254° |
| 2026-05-05 17:27 | 48.71282 | 16.24729 | 31719 ft | 449 kts | 254° |
| 2026-05-05 17:28 | 48.69515 | 16.15665 | 31720 ft | 449 kts | 254° |
| 2026-05-05 17:28 | 48.67744 | 16.06615 | 31714 ft | 449 kts | 254° |
| 2026-05-05 17:29 | 48.65976 | 15.97628 | 31718 ft | 449 kts | 254° |
| 2026-05-05 17:29 | 48.64188 | 15.88583 | 31718 ft | 449 kts | 254° |
| 2026-05-05 17:30 | 48.62394 | 15.79541 | 31712 ft | 449 kts | 253° |
| 2026-05-05 17:30 | 48.60591 | 15.70507 | 31712 ft | 449 kts | 253° |
| 2026-05-05 17:31 | 48.58794 | 15.61533 | 31712 ft | 449 kts | 253° |
| 2026-05-05 17:31 | 48.56976 | 15.52509 | 31712 ft | 449 kts | 253° |
| 2026-05-05 17:32 | 48.55152 | 15.43485 | 31715 ft | 449 kts | 253° |
| 2026-05-05 17:32 | 48.53321 | 15.34476 | 31712 ft | 449 kts | 253° |
| 2026-05-05 17:33 | 48.51482 | 15.25459 | 31713 ft | 449 kts | 253° |
| 2026-05-05 17:33 | 48.49648 | 15.16517 | 31719 ft | 449 kts | 252° |
| 2026-05-05 17:34 | 48.47797 | 15.07525 | 31719 ft | 449 kts | 252° |
| 2026-05-05 17:34 | 48.45937 | 14.98538 | 31721 ft | 449 kts | 252° |
| 2026-05-05 17:35 | 48.44072 | 14.89559 | 31718 ft | 449 kts | 252° |
| 2026-05-05 17:35 | 48.42200 | 14.80589 | 31722 ft | 449 kts | 252° |
| 2026-05-05 17:36 | 48.40332 | 14.71682 | 31718 ft | 449 kts | 252° |
| 2026-05-05 17:36 | 48.38446 | 14.62722 | 31721 ft | 449 kts | 252° |
| 2026-05-05 17:37 | 48.36554 | 14.53783 | 31722 ft | 449 kts | 252° |
| 2026-05-05 17:37 | 48.34652 | 14.44829 | 31722 ft | 449 kts | 252° |
| 2026-05-05 17:38 | 48.32765 | 14.35982 | 31729 ft | 449 kts | 251° |
| 2026-05-05 17:38 | 48.30847 | 14.27032 | 31723 ft | 449 kts | 251° |
| 2026-05-05 17:39 | 48.28929 | 14.18122 | 31727 ft | 449 kts | 251° |
| 2026-05-05 17:39 | 48.27004 | 14.09217 | 31728 ft | 448 kts | 251° |
| 2026-05-05 17:40 | 48.25071 | 14.00315 | 31728 ft | 448 kts | 251° |
| 2026-05-05 17:40 | 48.23149 | 13.91498 | 31757 ft | 448 kts | 250° |
| 2026-05-05 17:41 | 48.21210 | 13.82643 | 31741 ft | 446 kts | 250° |
| 2026-05-05 17:41 | 48.19267 | 13.73812 | 31743 ft | 446 kts | 250° |
| 2026-05-05 17:42 | 48.17324 | 13.65011 | 31753 ft | 445 kts | 250° |
| 2026-05-05 17:42 | 48.15387 | 13.56277 | 31752 ft | 445 kts | 250° |
| 2026-05-05 17:43 | 48.13428 | 13.47479 | 31757 ft | 444 kts | 250° |
| 2026-05-05 17:43 | 48.11473 | 13.38741 | 31764 ft | 443 kts | 250° |
| 2026-05-05 17:44 | 48.09512 | 13.30005 | 31759 ft | 442 kts | 249° |
| 2026-05-05 17:44 | 48.08561 | 13.25774 | 31751 ft | 415 kts | 249° |
| 2026-05-05 17:44 | 48.07671 | 13.21817 | 31676 ft | 388 kts | 249° |
| 2026-05-05 17:44 | 48.06827 | 13.18088 | 31399 ft | 370 kts | 249° |
| 2026-05-05 17:45 | 48.06019 | 13.14534 | 30965 ft | 363 kts | 249° |
| 2026-05-05 17:45 | 48.05205 | 13.10957 | 30380 ft | 364 kts | 248° |
| 2026-05-05 17:45 | 48.04384 | 13.07348 | 29736 ft | 372 kts | 248° |
| 2026-05-05 17:45 | 48.03539 | 13.03638 | 29068 ft | 382 kts | 248° |
| 2026-05-05 17:46 | 48.02675 | 12.99846 | 28400 ft | 388 kts | 248° |
| 2026-05-05 17:46 | 48.01802 | 12.96015 | 27851 ft | 390 kts | 248° |
| 2026-05-05 17:46 | 48.01060 | 12.92104 | 27327 ft | 395 kts | 256° |
| 2026-05-05 17:46 | 48.00843 | 12.87993 | 26819 ft | 401 kts | 267° |
| 2026-05-05 17:47 | 48.01171 | 12.83894 | 26319 ft | 407 kts | 278° |
| 2026-05-05 17:47 | 48.01863 | 12.79797 | 25831 ft | 407 kts | 280° |
| 2026-05-05 17:47 | 48.02565 | 12.75698 | 25348 ft | 407 kts | 280° |
| 2026-05-05 17:47 | 48.03256 | 12.71589 | 24872 ft | 407 kts | 280° |
| 2026-05-05 17:48 | 48.03940 | 12.67495 | 24405 ft | 407 kts | 280° |
| 2026-05-05 17:48 | 48.04628 | 12.63392 | 23947 ft | 407 kts | 280° |
| 2026-05-05 17:48 | 48.05290 | 12.59456 | 23510 ft | 406 kts | 280° |
| 2026-05-05 17:48 | 48.05973 | 12.55365 | 22998 ft | 406 kts | 280° |
| 2026-05-05 17:49 | 48.06654 | 12.51279 | 22467 ft | 405 kts | 280° |
| 2026-05-05 17:49 | 48.07335 | 12.47200 | 21942 ft | 404 kts | 280° |
| 2026-05-05 17:49 | 48.08015 | 12.43119 | 21424 ft | 403 kts | 281° |
| 2026-05-05 17:49 | 48.08688 | 12.39059 | 20927 ft | 402 kts | 280° |
| 2026-05-05 17:50 | 48.09351 | 12.35056 | 20437 ft | 401 kts | 281° |
| 2026-05-05 17:50 | 48.10017 | 12.31019 | 19948 ft | 400 kts | 281° |
| 2026-05-05 17:50 | 48.10680 | 12.26995 | 19457 ft | 394 kts | 281° |
| 2026-05-05 17:50 | 48.11330 | 12.23054 | 18813 ft | 386 kts | 281° |
| 2026-05-05 17:51 | 48.11962 | 12.19202 | 18177 ft | 375 kts | 281° |
| 2026-05-05 17:51 | 48.12485 | 12.15999 | 17572 ft | 363 kts | 281° |
| 2026-05-05 17:51 | 48.13074 | 12.12392 | 16870 ft | 349 kts | 281° |
| 2026-05-05 17:51 | 48.13638 | 12.08932 | 16194 ft | 336 kts | 281° |
| 2026-05-05 17:52 | 48.14181 | 12.05588 | 15521 ft | 326 kts | 281° |
| 2026-05-05 17:52 | 48.14702 | 12.02369 | 14828 ft | 319 kts | 281° |
| 2026-05-05 17:52 | 48.15221 | 11.99168 | 14146 ft | 313 kts | 281° |
| 2026-05-05 17:52 | 48.15729 | 11.96028 | 13432 ft | 309 kts | 281° |
| 2026-05-05 17:53 | 48.16231 | 11.92912 | 12562 ft | 307 kts | 281° |
| 2026-05-05 17:53 | 48.16732 | 11.89803 | 11727 ft | 306 kts | 281° |
| 2026-05-05 17:53 | 48.17220 | 11.86772 | 10943 ft | 304 kts | 281° |
| 2026-05-05 17:53 | 48.17695 | 11.83642 | 10150 ft | 300 kts | 277° |
| 2026-05-05 17:54 | 48.17734 | 11.80548 | 9353 ft | 295 kts | 262° |
| 2026-05-05 17:54 | 48.17307 | 11.77612 | 8554 ft | 291 kts | 253° |
| 2026-05-05 17:54 | 48.16760 | 11.74708 | 7776 ft | 288 kts | 253° |
| 2026-05-05 17:54 | 48.16239 | 11.71858 | 7030 ft | 285 kts | 254° |
| 2026-05-05 17:55 | 48.15717 | 11.68997 | 6304 ft | 283 kts | 254° |
| 2026-05-05 17:55 | 48.15293 | 11.66181 | 5973 ft | 268 kts | 265° |
| 2026-05-05 17:55 | 48.15468 | 11.63542 | 5965 ft | 246 kts | 287° |
| 2026-05-05 17:55 | 48.16369 | 11.61501 | 5963 ft | 231 kts | 315° |
| 2026-05-05 17:56 | 48.17730 | 11.60322 | 5808 ft | 227 kts | 340° |
| 2026-05-05 17:56 | 48.19287 | 11.60142 | 5611 ft | 227 kts | 5° |
| 2026-05-05 17:56 | 48.20807 | 11.60695 | 5418 ft | 221 kts | 2° |
| 2026-05-05 17:56 | 48.22253 | 11.60284 | 5124 ft | 215 kts | 328° |
| 2026-05-05 17:57 | 48.23294 | 11.58671 | 4840 ft | 224 kts | 295° |
| 2026-05-05 17:57 | 48.23568 | 11.56362 | 4597 ft | 233 kts | 265° |
| 2026-05-05 17:57 | 48.23220 | 11.53940 | 4423 ft | 241 kts | 256° |
| 2026-05-05 17:57 | 48.22747 | 11.51500 | 4278 ft | 246 kts | 255° |
| 2026-05-05 17:58 | 48.22241 | 11.49019 | 4138 ft | 251 kts | 253° |
| 2026-05-05 17:58 | 48.21412 | 11.46711 | 4009 ft | 256 kts | 234° |
| 2026-05-05 17:58 | 48.20188 | 11.44776 | 4005 ft | 254 kts | 225° |
| 2026-05-05 17:58 | 48.18900 | 11.43058 | 4000 ft | 238 kts | 224° |
| 2026-05-05 17:59 | 48.17721 | 11.41450 | 3998 ft | 220 kts | 226° |
| 2026-05-05 17:59 | 48.16668 | 11.39982 | 3961 ft | 202 kts | 226° |
| 2026-05-05 17:59 | 48.15633 | 11.38582 | 3712 ft | 199 kts | 225° |
| 2026-05-05 17:59 | 48.14646 | 11.37212 | 3463 ft | 187 kts | 226° |
| 2026-05-05 18:00 | 48.13753 | 11.35998 | 3227 ft | 160 kts | 226° |
| 2026-05-05 18:00 | 48.12981 | 11.34938 | 3023 ft | 141 kts | 228° |
| 2026-05-05 18:00 | 48.12295 | 11.33998 | 2835 ft | 128 kts | 227° |
| 2026-05-05 18:00 | 48.11671 | 11.33148 | 2660 ft | 115 kts | 230° |
| 2026-05-05 18:01 | 48.11083 | 11.32332 | 2496 ft | 117 kts | 227° |
| 2026-05-05 18:01 | 48.10448 | 11.31459 | 2349 ft | 130 kts | 227° |
| 2026-05-05 18:01 | 48.09773 | 11.30537 | 2242 ft | 134 kts | 226° |
| 2026-05-05 18:01 | 48.09064 | 11.29580 | 2036 ft | 143 kts | 224° |
| 2026-05-05 18:02 | 48.08360 | 11.28626 | 1926 ft | 122 kts | 227° |
| 2026-05-05 18:02 | 48.07865 | 11.27935 | 1925 ft | 60 kts | 221° |
| 2026-05-05 18:02 | 48.07671 | 11.27661 | 1925 ft | 20 kts | 225° |
| 2026-05-05 18:02 | 48.07640 | 11.27580 | 1923 ft | 6 kts | 276° |
| 2026-05-05 18:03 | 48.07685 | 11.27531 | 1920 ft | 11 kts | 1° |
| 2026-05-05 18:03 | 48.07749 | 11.27596 | 1920 ft | 12 kts | 42° |
| 2026-05-05 18:03 | 48.07819 | 11.27691 | 1920 ft | 15 kts | 41° |
| 2026-05-05 18:03 | 48.07919 | 11.27759 | 1920 ft | 17 kts | 16° |
| 2026-05-05 18:04 | 48.08034 | 11.27779 | 1919 ft | 17 kts | 358° |
| 2026-05-05 18:04 | 48.08131 | 11.27804 | 1919 ft | 12 kts | 38° |
| 2026-05-05 18:04 | 48.08196 | 11.27895 | 1919 ft | 14 kts | 43° |
| 2026-05-05 18:04 | 48.08272 | 11.28006 | 1919 ft | 16 kts | 44° |
| 2026-05-05 18:05 | 48.08358 | 11.28131 | 1919 ft | 19 kts | 44° |
| 2026-05-05 18:05 | 48.08457 | 11.28268 | 1919 ft | 21 kts | 40° |
| 2026-05-05 18:05 | 48.08563 | 11.28409 | 1919 ft | 17 kts | 42° |
| 2026-05-05 18:05 | 48.08654 | 11.28530 | 1919 ft | 19 kts | 43° |
| 2026-05-05 18:06 | 48.08750 | 11.28657 | 1919 ft | 17 kts | 39° |
| 2026-05-05 18:06 | 48.08809 | 11.28738 | 1919 ft | 18 kts | 42° |
| 2026-05-05 18:06 | 48.08863 | 11.28939 | 1919 ft | 14 kts | 90° |
| 2026-05-05 18:06 | 48.08863 | 11.29038 | 1919 ft | 0 kts | 90° |
| 2026-05-05 18:09 | 48.08863 | 11.29105 | 1920 ft | 11 kts | 90° |
| 2026-05-05 18:10 | 48.08847 | 11.29220 | 1923 ft | 12 kts | 133° |
| 2026-05-05 18:10 | 48.08792 | 11.29319 | 1921 ft | 13 kts | 151° |
| 2026-05-05 18:10 | 48.08733 | 11.29378 | 1919 ft | 11 kts | 111° |
| 2026-05-05 18:10 | 48.08749 | 11.29467 | 1919 ft | 0 kts | 38° |